Terminal Aerodrome Forecast
Issued by NWS Wakefield, VA

Home | Current Version | Previous Version | Text Only | Print | Product List | Glossary On
Versions: 1 2 3 4 5 6 7 8 9 10 11 12 13 14 15
000
FTUS41 KAKQ 011700
TAFECG
TAF
KECG 011739Z 0118/0218 33005KT 6SM -RA BR BKN035 OVC070
      TEMPO 0118/0121 2SM -RA BR SCT012 OVC020
     FM012100 15007KT 3SM -DZ BR OVC010
     FM020000 23006KT 4SM BR OVC007
     FM020700 24008KT 5SM BR OVC012
     FM021300 31008KT P6SM SCT025 BKN040=

USA.gov is the U.S. government's official web portal to all federal, state and local government web resources and services.